createdAt,value
2024-05-09T00:01:28.550Z,99633.91
2024-05-09T00:04:00.740Z,99624.41
2024-05-09T00:06:30.510Z,99637.38
2024-05-09T00:09:00.087Z,99633.00
2024-05-09T00:11:29.580Z,99642.28
2024-05-09T00:13:59.236Z,99619.69
2024-05-09T00:16:28.580Z,99637.81
2024-05-09T00:19:00.880Z,99637.69
2024-05-09T00:21:30.274Z,99640.06
2024-05-09T00:23:59.721Z,99645.97
2024-05-09T00:26:29.093Z,99605.13
2024-05-09T00:28:58.500Z,99638.72
2024-05-09T00:31:28.216Z,99630.94
2024-05-09T00:34:00.904Z,99634.22
2024-05-09T00:36:30.459Z,99648.69
2024-05-09T00:39:00.049Z,99599.41
2024-05-09T00:41:29.435Z,99633.91
2024-05-09T00:43:58.865Z,99632.22
2024-05-09T00:46:28.685Z,99555.03
2024-05-09T00:49:00.811Z,99633.63
2024-05-09T00:51:30.615Z,99635.22
2024-05-09T00:54:00.476Z,99630.97
2024-05-09T00:56:29.979Z,99631.81
2024-05-09T00:58:59.506Z,99627.41
2024-05-09T01:01:29.175Z,99627.28
2024-05-09T01:04:02.098Z,99621.97
2024-05-09T01:06:31.757Z,99623.63
2024-05-09T01:09:01.208Z,99613.16
2024-05-09T01:11:36.491Z,99624.94
2024-05-09T01:14:05.979Z,99622.31
2024-05-09T01:16:35.919Z,99629.81
2024-05-09T01:19:17.146Z,99635.75
2024-05-09T01:21:46.969Z,99433.16
2024-05-09T01:24:18.960Z,99644.88
2024-05-09T01:26:48.325Z,99630.38
2024-05-09T01:29:17.990Z,99635.47
2024-05-09T01:31:48.149Z,99628.41
2024-05-09T01:34:17.817Z,99625.09
2024-05-09T01:36:47.225Z,99631.91
2024-05-09T01:39:19.399Z,99625.06
2024-05-09T01:41:48.957Z,99621.56
2024-05-09T01:44:18.947Z,99624.03
2024-05-09T01:46:48.605Z,99629.00
2024-05-09T01:49:18.359Z,99627.97
2024-05-09T01:51:48.139Z,99606.97
2024-05-09T01:54:20.086Z,99615.13
2024-05-09T01:56:49.737Z,99614.91
2024-05-09T01:59:19.164Z,99623.53
2024-05-09T02:01:56.666Z,99623.41
2024-05-09T02:04:27.608Z,99621.63
2024-05-09T02:06:57.103Z,99630.97
2024-05-09T02:09:30.527Z,99625.72
2024-05-09T02:12:00.114Z,99627.19
2024-05-09T02:14:29.553Z,99628.94
2024-05-09T02:16:59.165Z,99624.47
2024-05-09T02:19:28.737Z,99593.31
2024-05-09T02:21:58.163Z,99624.38
2024-05-09T02:24:30.157Z,99638.31
2024-05-09T02:26:59.741Z,99638.97
2024-05-09T02:29:29.790Z,99629.31
2024-05-09T02:31:59.391Z,99618.09
2024-05-09T02:34:29.063Z,99629.31
2024-05-09T02:36:56.274Z,99633.53
2024-05-09T02:39:25.871Z,99636.91
2024-05-09T02:41:55.536Z,99545.13
2024-05-09T02:44:24.977Z,99618.63
2024-05-09T02:46:52.089Z,99628.03
2024-05-09T02:49:21.714Z,99618.47
2024-05-09T02:51:48.683Z,99638.25
2024-05-09T02:54:18.208Z,99604.31
2024-05-09T02:56:44.975Z,99604.41
2024-05-09T02:59:17.157Z,99634.72
2024-05-09T03:01:44.850Z,99633.53
2024-05-09T03:04:14.528Z,99640.34
2024-05-09T03:06:41.372Z,99633.50
2024-05-09T03:09:11.024Z,99632.53
2024-05-09T03:11:38.159Z,99628.78
2024-05-09T03:14:07.621Z,99641.34
2024-05-09T03:16:40.139Z,99643.72
2024-05-09T03:19:09.777Z,99634.16
2024-05-09T03:21:38.469Z,99645.41
2024-05-09T03:24:08.647Z,99640.91
2024-05-09T03:26:35.480Z,99644.38
2024-05-09T03:29:04.965Z,99639.38
2024-05-09T03:31:31.827Z,99648.66
2024-05-09T03:34:03.967Z,99630.59
2024-05-09T03:36:30.889Z,99634.91
2024-05-09T03:39:00.431Z,99630.81
2024-05-09T03:41:30.062Z,99645.09
2024-05-09T03:43:59.535Z,99633.25
2024-05-09T03:46:29.177Z,99631.72
2024-05-09T03:48:56.741Z,99644.94
2024-05-09T03:51:29.004Z,99635.53
2024-05-09T03:53:55.804Z,99640.09
2024-05-09T03:56:25.631Z,99634.34
2024-05-09T03:58:52.780Z,99633.63
2024-05-09T04:01:22.505Z,99639.78
2024-05-09T04:03:49.440Z,99586.97
2024-05-09T04:06:23.296Z,99643.59
2024-05-09T04:08:52.769Z,99647.13
2024-05-09T04:11:22.349Z,99588.34
2024-05-09T04:13:49.417Z,99636.16
2024-05-09T04:16:18.743Z,99563.31
2024-05-09T04:18:45.862Z,99587.66
2024-05-09T04:21:15.474Z,99637.47
2024-05-09T04:23:42.577Z,99652.22
2024-05-09T04:26:14.819Z,99650.75
2024-05-09T04:28:41.640Z,99645.03
2024-05-09T04:31:11.167Z,99644.38
2024-05-09T04:33:38.055Z,99647.22
2024-05-09T04:36:09.271Z,99644.88
2024-05-09T04:38:36.269Z,99647.50
2024-05-09T04:41:05.961Z,99626.03
2024-05-09T04:43:35.475Z,99601.81
2024-05-09T04:46:05.060Z,99640.78
2024-05-09T04:48:32.216Z,99641.63
2024-05-09T04:51:01.773Z,99670.94
2024-05-09T04:53:28.770Z,99638.38
2024-05-09T04:55:58.320Z,99627.16
2024-05-09T04:58:25.122Z,99641.91
2024-05-09T05:00:57.196Z,99654.09
2024-05-09T05:03:24.332Z,99657.53
2024-05-09T05:05:54.142Z,99650.72
2024-05-09T05:08:21.100Z,99658.59
2024-05-09T05:10:50.915Z,99659.66
2024-05-09T05:13:21.144Z,99663.25
2024-05-09T05:15:53.168Z,99661.09
2024-05-09T05:18:24.038Z,99658.59
2024-05-09T05:20:54.116Z,99657.94
2024-05-09T05:23:25.076Z,99658.13
2024-05-09T05:25:53.914Z,99649.50
2024-05-09T05:28:24.127Z,99623.59
2024-05-09T05:30:51.194Z,99655.69
2024-05-09T05:33:22.576Z,99657.25
2024-05-09T05:35:53.213Z,99659.44
2024-05-09T05:38:26.103Z,99663.09
2024-05-09T05:40:55.282Z,99661.41
2024-05-09T05:43:24.864Z,99662.06
2024-05-09T05:45:51.655Z,99644.06
2024-05-09T05:48:21.216Z,99668.47
2024-05-09T05:50:48.380Z,99665.84
2024-05-09T05:53:20.409Z,99664.13
2024-05-09T05:55:47.322Z,99664.22
2024-05-09T05:58:17.286Z,99670.13
2024-05-09T06:00:44.524Z,99675.13
2024-05-09T06:03:14.904Z,99639.91
2024-05-09T06:05:43.953Z,99664.13
2024-05-09T06:08:14.672Z,99622.31
2024-05-09T06:10:44.394Z,99608.66
2024-05-09T06:13:15.673Z,99665.00
2024-05-09T06:15:43.599Z,99651.63
2024-05-09T06:18:14.156Z,99671.78
2024-05-09T06:20:42.865Z,99665.41
2024-05-09T06:23:13.700Z,99625.81
2024-05-09T06:25:44.306Z,99649.41
2024-05-09T06:28:13.940Z,99662.91
2024-05-09T06:30:42.638Z,99666.16
2024-05-09T06:33:15.843Z,99667.47
2024-05-09T06:35:43.780Z,99658.09
2024-05-09T06:38:13.435Z,99591.03
2024-05-09T06:40:44.407Z,99673.19
2024-05-09T06:43:16.690Z,99662.72
2024-05-09T06:45:46.781Z,99582.59
2024-05-09T06:48:16.535Z,99651.06
2024-05-09T06:50:44.544Z,99624.66
2024-05-09T06:53:17.215Z,99660.06
2024-05-09T06:55:46.858Z,99663.28
2024-05-09T06:58:16.483Z,99654.78
2024-05-09T07:00:43.490Z,99659.25
2024-05-09T07:03:16.899Z,99666.78
2024-05-09T07:05:46.252Z,99656.81
2024-05-09T07:08:16.639Z,99641.91
2024-05-09T07:10:46.596Z,99641.09
2024-05-09T07:13:17.827Z,99654.44
2024-05-09T07:15:44.822Z,99661.56
2024-05-09T07:18:15.699Z,99649.53
2024-05-09T07:20:43.661Z,99594.50
2024-05-09T07:23:14.147Z,99543.06
2024-05-09T07:25:41.990Z,99652.09
2024-05-09T07:28:17.569Z,99619.44
2024-05-09T07:30:44.955Z,99603.19
2024-05-09T07:33:19.557Z,99636.94
2024-05-09T07:36:26.415Z,99644.63
2024-05-09T07:38:53.372Z,99613.78
2024-05-09T07:41:22.875Z,99576.88
2024-05-09T07:43:52.410Z,99635.69
2024-05-09T07:53:58.290Z,99619.66
2024-05-09T07:56:30.192Z,99615.44
2024-05-09T07:58:59.928Z,99604.28
2024-05-09T08:01:29.778Z,99598.31
2024-05-09T08:03:56.891Z,99610.41
2024-05-09T08:06:26.900Z,99601.78
2024-05-09T08:08:54.309Z,99600.09
2024-05-09T08:11:24.311Z,99592.34
2024-05-09T08:13:51.235Z,99582.03
2024-05-09T08:16:23.449Z,99587.16
2024-05-09T08:18:50.614Z,99592.28
2024-05-09T08:21:20.078Z,99589.66
2024-05-09T08:23:46.822Z,99584.47
2024-05-09T08:30:04.911Z,99587.69
2024-05-09T08:32:35.765Z,99560.00
2024-05-09T08:35:05.225Z,99580.56
2024-05-09T08:37:36.850Z,99578.88
2024-05-09T08:40:16.609Z,99559.88
2024-05-09T08:42:49.482Z,99567.53
2024-05-09T08:45:20.079Z,99569.22
2024-05-09T08:47:50.732Z,99571.63
2024-05-09T08:50:29.224Z,99562.13
2024-05-09T08:53:03.459Z,99562.16
2024-05-09T08:55:32.912Z,99563.06
2024-05-09T08:58:03.600Z,99553.63
2024-05-09T09:00:37.019Z,99560.66
2024-05-09T09:03:09.605Z,99546.81
2024-05-09T09:05:42.265Z,99553.56
2024-05-09T09:08:09.332Z,99555.22
2024-05-09T09:10:41.154Z,99552.38
2024-05-09T09:13:09.838Z,99552.16
2024-05-09T09:15:49.674Z,99554.53
2024-05-09T09:18:19.492Z,99553.44
2024-05-09T09:20:48.950Z,99564.72
2024-05-09T09:23:15.791Z,99557.22
2024-05-09T09:25:45.347Z,99563.31
2024-05-09T09:28:12.687Z,99545.16
2024-05-09T09:30:42.766Z,99559.47
2024-05-09T09:33:10.442Z,99558.53
2024-05-09T09:35:43.355Z,99552.44
2024-05-09T09:38:12.442Z,99554.88
2024-05-09T09:40:49.775Z,99542.28
2024-05-09T09:43:19.831Z,99552.38
2024-05-09T09:45:53.475Z,99550.75
2024-05-09T09:48:22.052Z,99551.50
2024-05-09T09:50:55.442Z,99554.63
2024-05-09T09:53:23.302Z,99497.84
2024-05-09T09:55:53.797Z,99547.91
2024-05-09T09:58:21.573Z,99544.50
2024-05-09T10:00:51.302Z,99509.53
2024-05-09T10:03:18.464Z,99537.03
2024-05-09T10:05:48.398Z,99531.22
2024-05-09T10:08:19.036Z,99535.97
2024-05-09T10:10:50.122Z,99538.63
2024-05-09T10:13:17.349Z,99540.69
2024-05-09T10:15:48.274Z,99537.25
2024-05-09T10:18:15.596Z,99530.34
2024-05-09T10:20:46.303Z,99497.41
2024-05-09T10:23:27.093Z,99518.66
2024-05-09T10:26:01.194Z,99535.47
2024-05-09T10:28:28.565Z,99532.34
2024-05-09T10:31:11.997Z,99522.88
2024-05-09T10:33:39.950Z,99508.44
2024-05-09T10:36:22.624Z,99522.00
2024-05-09T10:38:53.650Z,99525.94
2024-05-09T10:41:24.127Z,99529.84
2024-05-09T10:43:52.467Z,99509.94
2024-05-09T10:46:22.071Z,99524.88
2024-05-09T10:48:49.381Z,99522.25
2024-05-09T10:51:22.208Z,99517.34
2024-05-09T10:53:52.573Z,99511.91
2024-05-09T10:56:22.210Z,99505.03
2024-05-09T10:58:51.951Z,99441.28
2024-05-09T11:01:22.024Z,99486.25
2024-05-09T11:03:49.963Z,99481.34
2024-05-09T11:06:20.558Z,99410.88
2024-05-09T11:08:53.537Z,99495.91
2024-05-09T11:11:25.877Z,99485.41
2024-05-09T11:13:52.931Z,99489.66
2024-05-09T11:16:23.834Z,99475.97
2024-05-09T11:18:55.561Z,99473.81
2024-05-09T11:21:25.549Z,99472.50
2024-05-09T11:23:52.908Z,99475.00
2024-05-09T11:26:27.476Z,99472.53
2024-05-09T11:28:54.249Z,99463.00
2024-05-09T11:31:24.154Z,99470.56
2024-05-09T11:33:54.460Z,99465.53
2024-05-09T11:36:24.219Z,99463.50
2024-05-09T11:38:51.008Z,99463.50
2024-05-09T11:41:21.196Z,99471.34
2024-05-09T11:43:50.616Z,99470.63
2024-05-09T11:46:20.176Z,99452.75
2024-05-09T11:48:47.697Z,99453.84
2024-05-09T11:51:17.496Z,99449.59
2024-05-09T11:53:44.393Z,99454.56
2024-05-09T11:56:15.660Z,99444.34
2024-05-09T11:58:42.814Z,99445.97
2024-05-09T12:01:15.102Z,99433.56
2024-05-09T12:03:42.020Z,99428.69
2024-05-09T12:06:11.748Z,99432.66
2024-05-09T12:08:38.798Z,99427.72
2024-05-09T12:11:08.729Z,99427.94
2024-05-09T12:13:35.603Z,99426.28
2024-05-09T12:16:05.458Z,99417.47
2024-05-09T12:18:37.744Z,99422.03
2024-05-09T12:21:05.319Z,99418.94
2024-05-09T12:23:35.182Z,99423.09
2024-05-09T12:26:02.992Z,99412.16
2024-05-09T12:28:32.835Z,99407.94
2024-05-09T12:30:59.656Z,99414.59
2024-05-09T12:33:29.893Z,99412.63
2024-05-09T12:35:59.621Z,99411.63
2024-05-09T12:38:29.329Z,99410.94
2024-05-09T12:40:56.276Z,99413.53
2024-05-09T12:43:26.012Z,99417.16
2024-05-09T12:48:22.488Z,99407.63
2024-05-09T12:50:49.594Z,99404.38
2024-05-09T12:53:21.854Z,99405.22
2024-05-09T12:55:56.290Z,99406.06
2024-05-09T12:58:29.206Z,99385.44
2024-05-09T13:00:56.357Z,99373.41
2024-05-09T13:03:26.149Z,99391.78
2024-05-09T13:05:53.712Z,99337.06
2024-05-09T13:08:26.422Z,99375.56
2024-05-09T13:10:53.595Z,99386.63
2024-05-09T13:13:23.030Z,99379.38
2024-05-09T13:15:50.236Z,99375.81
2024-05-09T13:18:19.782Z,99370.84
2024-05-09T13:20:46.656Z,99385.97
2024-05-09T13:23:16.131Z,99383.94
2024-05-09T13:25:46.265Z,99377.59
2024-05-09T13:28:15.822Z,99374.47
2024-05-09T13:30:42.967Z,99374.53
2024-05-09T13:33:13.485Z,99366.47
2024-05-09T13:35:45.638Z,99362.19
2024-05-09T13:38:19.455Z,99361.03
2024-05-09T13:40:50.517Z,99354.09
2024-05-09T13:43:21.805Z,99352.59
2024-05-09T13:45:49.411Z,99362.00
2024-05-09T13:48:19.597Z,99351.78
2024-05-09T13:50:47.021Z,99351.19
2024-05-09T13:53:16.445Z,99282.53
2024-05-09T13:55:43.697Z,99341.72
2024-05-09T13:58:15.859Z,99346.50
2024-05-09T14:00:47.492Z,99189.03
2024-05-09T14:03:20.693Z,99301.19
2024-05-09T14:05:49.859Z,99330.59
2024-05-09T14:08:22.423Z,99326.75
2024-05-09T14:10:50.309Z,99323.03
2024-05-09T14:13:22.833Z,99310.84
2024-05-09T14:15:50.225Z,99276.44
2024-05-09T14:18:20.646Z,99270.59
2024-05-09T14:20:47.432Z,99309.13
2024-05-09T14:23:17.233Z,99307.53
2024-05-09T14:25:46.553Z,99316.41
2024-05-09T14:28:18.449Z,99293.06
2024-05-09T14:30:48.004Z,99305.91
2024-05-09T14:33:23.663Z,99260.63
2024-05-09T14:35:50.705Z,99257.44
2024-05-09T14:38:20.054Z,99299.81
2024-05-09T14:40:46.933Z,99291.91
2024-05-09T14:43:17.806Z,99297.16
2024-05-09T14:45:47.528Z,99292.75
2024-05-09T14:48:20.086Z,99287.69
2024-05-09T14:50:47.110Z,99292.56
2024-05-09T14:53:16.598Z,99271.19
2024-05-09T14:55:44.078Z,99243.91
2024-05-09T14:58:14.438Z,99280.44
2024-05-09T15:00:46.289Z,99259.47
2024-05-09T15:03:22.875Z,99268.84
2024-05-09T15:05:50.765Z,99247.41
2024-05-09T15:08:21.438Z,99246.09
2024-05-09T15:10:50.057Z,99271.69
2024-05-09T15:13:20.800Z,99260.47
2024-05-09T15:15:48.298Z,99270.94
2024-05-09T15:18:18.690Z,99242.94
2024-05-09T15:20:49.056Z,99229.66
2024-05-09T15:23:19.088Z,99279.16
2024-05-09T15:25:47.451Z,99262.06
2024-05-09T15:28:17.045Z,99261.91
2024-05-09T15:30:46.240Z,99247.44
2024-05-09T15:33:16.842Z,99246.22
2024-05-09T15:35:46.192Z,99254.53
2024-05-09T15:38:19.167Z,99246.50
2024-05-09T15:40:46.541Z,99258.25
2024-05-09T15:43:16.390Z,99254.44
2024-05-09T15:45:43.252Z,99245.91
2024-05-09T15:48:12.956Z,99211.56
2024-05-09T15:50:42.037Z,99241.75
2024-05-09T15:53:14.003Z,99231.31
2024-05-09T15:55:43.794Z,99234.50
2024-05-09T15:58:14.158Z,99222.34
2024-05-09T16:00:44.221Z,99243.34
2024-05-09T16:03:15.832Z,99231.00
2024-05-09T16:05:43.916Z,99242.50
2024-05-09T16:08:14.370Z,99241.63
2024-05-09T16:10:46.130Z,99214.97
2024-05-09T16:13:17.807Z,99227.06
2024-05-09T16:15:45.316Z,99239.16
2024-05-09T16:18:17.165Z,99188.72
2024-05-09T16:20:45.656Z,99237.72
2024-05-09T16:23:17.119Z,99213.69
2024-05-09T16:25:48.492Z,99200.97
2024-05-09T16:28:18.750Z,99188.56
2024-05-09T16:30:45.815Z,99205.88
2024-05-09T16:33:15.560Z,99194.81
2024-05-09T16:35:42.516Z,99220.28
2024-05-09T16:38:15.235Z,99217.72
2024-05-09T16:40:42.405Z,99202.66
2024-05-09T16:43:15.808Z,99218.75
2024-05-09T16:45:44.696Z,99220.34
2024-05-09T16:48:15.047Z,99219.91
2024-05-09T16:50:42.231Z,99199.81
2024-05-09T16:53:12.717Z,99222.63
2024-05-09T16:55:39.922Z,99218.00
2024-05-09T16:58:12.426Z,99218.59
2024-05-09T17:00:43.770Z,99213.53
2024-05-09T17:03:16.267Z,99217.56
2024-05-09T17:05:45.982Z,99213.00
2024-05-09T17:08:18.175Z,99207.84
2024-05-09T17:10:45.644Z,99221.00
2024-05-09T17:13:16.971Z,99208.47
2024-05-09T17:15:50.349Z,99206.41
2024-05-09T17:18:20.447Z,99215.13
2024-05-09T17:20:47.623Z,99182.84
2024-05-09T17:23:17.381Z,99203.78
2024-05-09T17:25:44.260Z,99204.16
2024-05-09T17:28:13.949Z,99204.50
2024-05-09T17:30:42.264Z,99216.81
2024-05-09T17:33:15.296Z,99214.06
2024-05-09T17:35:42.342Z,99219.97
2024-05-09T17:38:12.311Z,99204.94
2024-05-09T17:40:39.902Z,99197.19
2024-05-09T17:43:10.908Z,99226.72
2024-05-09T17:45:38.522Z,99221.69
2024-05-09T17:48:10.718Z,99201.06
2024-05-09T17:50:43.776Z,99220.84
2024-05-09T17:53:11.254Z,99219.22
2024-05-09T17:55:42.656Z,99209.88
2024-05-09T17:58:10.093Z,99223.81
2024-05-09T18:00:42.085Z,99222.94
2024-05-09T18:03:12.032Z,99224.53
2024-05-09T18:05:46.323Z,99194.41
2024-05-09T18:08:15.644Z,99225.19
2024-05-09T18:10:45.354Z,99222.34
2024-05-09T18:13:13.222Z,99228.47
2024-05-09T18:15:44.928Z,99219.72
2024-05-09T18:18:12.880Z,99235.16
2024-05-09T18:20:46.330Z,99227.03
2024-05-09T18:23:16.204Z,99204.41
2024-05-09T18:25:47.937Z,99233.06
2024-05-09T18:28:15.341Z,99239.00
2024-05-09T18:30:45.457Z,99226.66
2024-05-09T18:33:14.765Z,99245.78
2024-05-09T18:35:49.377Z,99223.53
2024-05-09T18:38:17.494Z,99232.09
2024-05-09T18:40:49.368Z,99232.69
2024-05-09T18:43:16.894Z,99236.06
2024-05-09T18:45:47.472Z,99216.88
2024-05-09T18:48:17.216Z,99244.72
2024-05-09T18:50:46.752Z,99247.72
2024-05-09T18:53:16.644Z,99234.31
2024-05-09T18:55:43.605Z,99250.84
2024-05-09T18:58:13.420Z,99238.19
2024-05-09T19:00:42.980Z,99212.78
2024-05-09T19:03:15.620Z,99249.84
2024-05-09T19:05:44.384Z,99226.94
2024-05-09T19:08:17.944Z,99167.91
2024-05-09T19:10:45.967Z,99269.22
2024-05-09T19:13:16.571Z,99210.16
2024-05-09T19:15:44.133Z,99277.16
2024-05-09T19:18:15.428Z,99257.63
2024-05-09T19:20:42.828Z,99286.91
2024-05-09T19:23:13.038Z,99255.25
2024-05-09T19:25:42.893Z,99289.66
2024-05-09T19:28:12.756Z,99298.38
2024-05-09T19:30:42.152Z,99296.75
2024-05-09T19:33:14.021Z,99271.91
2024-05-09T19:35:42.049Z,99254.75
2024-05-09T19:38:11.897Z,99308.06
2024-05-09T19:40:39.016Z,99225.63
2024-05-09T19:43:13.395Z,99303.00
2024-05-09T19:45:40.476Z,99301.25
2024-05-09T19:48:10.814Z,99303.00
2024-05-09T19:50:42.875Z,99290.22
2024-05-09T19:53:14.641Z,99257.59
2024-05-09T19:55:42.614Z,99310.88
2024-05-09T19:58:15.737Z,99287.72
2024-05-09T20:00:44.092Z,99306.59
2024-05-09T20:03:15.742Z,99305.78
2024-05-09T20:05:46.661Z,99292.06
2024-05-09T20:08:16.578Z,99306.66
2024-05-09T20:10:44.559Z,99309.25
2024-05-09T20:13:17.333Z,99318.72
2024-05-09T20:15:44.256Z,99274.91
2024-05-09T20:18:14.791Z,99319.59
2024-05-09T20:20:43.867Z,99317.88
2024-05-09T20:23:15.580Z,99317.03
2024-05-09T20:25:43.167Z,99319.59
2024-05-09T20:28:13.684Z,99327.31
2024-05-09T20:30:43.939Z,99298.91
2024-05-09T20:33:14.248Z,99320.44
2024-05-09T20:35:42.051Z,99322.16
2024-05-09T20:38:11.451Z,99321.25
2024-05-09T20:40:39.640Z,99312.66
2024-05-09T20:43:11.985Z,99318.66
2024-05-09T20:45:39.952Z,99309.22
2024-05-09T20:48:13.052Z,99328.09
2024-05-09T20:50:42.419Z,99320.34
2024-05-09T20:53:14.653Z,99310.88
2024-05-09T20:55:42.707Z,99328.06
2024-05-09T20:58:14.033Z,99324.63
2024-05-09T21:00:44.696Z,99322.88
2024-05-09T21:03:18.352Z,99329.72
2024-05-09T21:05:45.980Z,99323.69
2024-05-09T21:08:16.086Z,99334.88
2024-05-09T21:10:43.256Z,99333.94
2024-05-09T21:13:13.643Z,99321.94
2024-05-09T21:15:40.764Z,99327.09
2024-05-09T21:18:11.050Z,99306.38
2024-05-09T21:20:40.569Z,99332.19
2024-05-09T21:23:10.148Z,99334.75
2024-05-09T21:25:37.360Z,99338.06
2024-05-09T21:28:07.392Z,99337.25
2024-05-09T21:30:41.292Z,99280.44
2024-05-09T21:33:14.545Z,99324.31
2024-05-09T21:35:47.373Z,99338.06
2024-05-09T21:38:15.276Z,99324.22
2024-05-09T21:40:45.666Z,99276.00
2024-05-09T21:43:12.840Z,99298.31
2024-05-09T21:45:42.702Z,99337.06
2024-05-09T21:48:12.425Z,99332.78
2024-05-09T21:50:42.689Z,99243.22
2024-05-09T21:53:13.313Z,99338.72
2024-05-09T21:55:43.831Z,99343.00
2024-05-09T21:58:11.942Z,99338.63
2024-05-09T22:00:43.165Z,99338.63
2024-05-09T22:03:11.618Z,99337.63
2024-05-09T22:05:45.201Z,99337.59
2024-05-09T22:08:15.010Z,99329.81
2024-05-09T22:10:45.272Z,99338.34
2024-05-09T22:13:12.250Z,99327.28
2024-05-09T22:15:42.467Z,99328.94
2024-05-09T22:18:10.807Z,99334.91
2024-05-09T22:20:45.108Z,99327.13
2024-05-09T22:23:16.115Z,99291.69
2024-05-09T22:25:45.698Z,99333.84
2024-05-09T22:28:14.641Z,99307.97
2024-05-09T22:30:46.575Z,99334.63
2024-05-09T22:33:15.055Z,99329.41
2024-05-09T22:35:44.839Z,99318.94
2024-05-09T22:38:11.693Z,99333.56
2024-05-09T22:40:48.356Z,99283.34
2024-05-09T22:43:18.838Z,99333.41
2024-05-09T22:45:49.689Z,99327.28
2024-05-09T22:48:17.052Z,99345.22
2024-05-09T22:50:47.100Z,99343.41
2024-05-09T22:53:13.919Z,99299.50
2024-05-09T22:55:46.168Z,99347.81
2024-05-09T22:58:13.076Z,99305.53
2024-05-09T23:00:42.838Z,99347.75
2024-05-09T23:03:09.716Z,99355.44
2024-05-09T23:05:39.165Z,99349.34
2024-05-09T23:08:06.305Z,99352.88
2024-05-09T23:10:37.890Z,99351.88
2024-05-09T23:13:08.533Z,99349.34
2024-05-09T23:15:38.925Z,99327.84
2024-05-09T23:18:06.572Z,99328.59
2024-05-09T23:20:39.194Z,99344.00
2024-05-09T23:23:07.171Z,99326.50
2024-05-09T23:25:36.817Z,99345.41
2024-05-09T23:28:04.719Z,99347.13
2024-05-09T23:30:39.738Z,99354.84
2024-05-09T23:33:09.904Z,99335.84
2024-05-09T23:35:39.634Z,99357.06
2024-05-09T23:38:06.699Z,99359.84
2024-05-09T23:40:39.723Z,99334.81
2024-05-09T23:43:10.057Z,99257.06
2024-05-09T23:45:42.786Z,99302.81
2024-05-09T23:48:10.560Z,99349.47
2024-05-09T23:50:40.956Z,99350.25
2024-05-09T23:53:09.712Z,99331.22
2024-05-09T23:55:40.081Z,99348.56
2024-05-09T23:58:07.446Z,99238.06
